Time;durP1;ratioP1;P1;durP2;ratioP2;P2;SDS_P1;SDS_P2;PMS_P1;PMS_P2;Temp;Humidity;BMP_temperature;BMP_pressure;BME280_temperature;BME280_humidity;BME280_pressure;Samples;Min_cycle;Max_cycle;Signal;HPM_P1;HPM_P2
2021/11/30 00:05:03;;;;;;;2.72;2.53;;;3.50;99.90;;;;;;5070537;28;20336;-67
2021/11/30 00:07:29;;;;;;;2.75;2.55;;;3.50;99.90;;;;;;5070364;28;20262;-66
2021/11/30 00:12:23;;;;;;;2.30;2.13;;;3.50;99.90;;;;;;5070880;28;20176;-66
2021/11/30 00:14:50;;;;;;;3.85;2.92;;;3.50;99.90;;;;;;5070504;28;20197;-66
2021/11/30 00:17:17;;;;;;;3.17;2.88;;;3.50;99.90;;;;;;5070056;28;20642;-66
2021/11/30 00:19:43;;;;;;;2.97;2.75;;;3.50;99.90;;;;;;5070092;28;20165;-65
2021/11/30 00:22:11;;;;;;;3.33;2.83;;;3.50;99.90;;;;;;5070200;28;20165;-66
2021/11/30 00:24:37;;;;;;;3.33;3.03;;;3.50;99.90;;;;;;5069781;28;20212;-65
2021/11/30 00:27:05;;;;;;;2.90;2.80;;;3.50;99.90;;;;;;5069684;28;20176;-65
2021/11/30 00:29:31;;;;;;;6.03;3.90;;;3.40;99.90;;;;;;5070390;28;20525;-65
2021/11/30 00:31:57;;;;;;;2.90;2.70;;;3.40;99.90;;;;;;5070000;28;20169;-66
2021/11/30 00:34:24;;;;;;;2.97;2.73;;;3.40;99.90;;;;;;5069938;28;20195;-66
2021/11/30 00:36:50;;;;;;;2.88;2.63;;;3.40;99.90;;;;;;5069792;28;20757;-66
2021/11/30 00:39:16;;;;;;;5.40;3.13;;;3.40;99.90;;;;;;5069984;28;20177;-66
2021/11/30 00:41:48;;;;;;;4.27;3.73;;;3.40;99.90;;;;;;5069888;28;20268;-66
2021/11/30 00:44:15;;;;;;;3.92;3.45;;;3.40;99.90;;;;;;5069742;28;20724;-66
2021/11/30 00:46:42;;;;;;;7.13;2.92;;;3.40;99.90;;;;;;5069532;28;20594;-66
2021/11/30 00:49:08;;;;;;;2.03;1.92;;;3.30;99.90;;;;;;5069865;28;20562;-65
2021/11/30 00:51:37;;;;;;;2.38;2.20;;;3.30;99.90;;;;;;5069699;28;20161;-66
2021/11/30 00:54:04;;;;;;;2.30;2.20;;;3.20;99.90;;;;;;5069681;28;20196;-66
2021/11/30 00:56:29;;;;;;;3.00;2.28;;;3.20;99.90;;;;;;5069113;28;20654;-66
2021/11/30 00:58:55;;;;;;;2.33;2.23;;;3.20;99.90;;;;;;5069523;28;20177;-66
2021/11/30 01:01:21;;;;;;;1.73;1.63;;;3.20;99.90;;;;;;5069585;28;20177;-66
2021/11/30 01:03:47;;;;;;;2.43;2.23;;;3.20;99.90;;;;;;5079336;28;20485;-66
2021/11/30 01:06:13;;;;;;;2.53;2.42;;;3.10;99.90;;;;;;5089575;28;20463;-66
2021/11/30 01:08:39;;;;;;;2.65;2.45;;;3.10;99.90;;;;;;5089530;28;20183;-65
2021/11/30 01:11:05;;;;;;;2.17;2.07;;;3.00;99.90;;;;;;5089638;28;20630;-66
2021/11/30 01:13:33;;;;;;;2.93;2.17;;;3.00;99.90;;;;;;5071264;28;20195;-66
2021/11/30 01:15:59;;;;;;;3.65;3.25;;;3.00;99.90;;;;;;5077984;28;20177;-66
2021/11/30 01:18:26;;;;;;;2.08;1.88;;;3.00;99.90;;;;;;5075453;28;20169;-66
2021/11/30 01:20:52;;;;;;;1.55;1.45;;;3.00;99.90;;;;;;5061107;28;20255;-66
2021/11/30 01:23:19;;;;;;;4.30;2.80;;;3.10;99.90;;;;;;5056023;28;20585;-67
2021/11/30 01:25:45;;;;;;;1.98;1.80;;;3.10;99.90;;;;;;5037729;28;20566;-67
2021/11/30 01:28:11;;;;;;;2.25;2.15;;;3.10;99.90;;;;;;5055344;28;20177;-67
2021/11/30 01:30:37;;;;;;;2.45;2.28;;;3.10;99.90;;;;;;5055631;28;20170;-66
2021/11/30 01:33:07;;;;;;;2.33;1.98;;;3.10;99.90;;;;;;5055619;28;20280;-67
2021/11/30 01:35:34;;;;;;;2.65;2.45;;;3.20;99.90;;;;;;5055773;28;20519;-66
2021/11/30 01:38:00;;;;;;;1.80;1.70;;;3.20;99.90;;;;;;5055267;28;20170;-66
2021/11/30 01:40:28;;;;;;;5.70;2.55;;;3.20;99.90;;;;;;5055574;28;20227;-67
2021/11/30 01:42:56;;;;;;;1.88;1.65;;;3.20;99.90;;;;;;5055015;28;20240;-66
2021/11/30 01:50:26;;;;;;;3.05;2.80;;;3.30;99.90;;;;;;5055495;28;20177;-67
2021/11/30 01:52:52;;;;;;;2.30;2.10;;;3.30;99.90;;;;;;5055112;28;20193;-68
2021/11/30 01:55:18;;;;;;;2.07;1.97;;;3.30;99.90;;;;;;5055480;28;20166;-65
2021/11/30 01:57:44;;;;;;;3.42;3.13;;;3.30;99.90;;;;;;5054690;28;20601;-66
2021/11/30 02:00:12;;;;;;;1.77;1.67;;;3.30;99.90;;;;;;5055064;28;20192;-66
2021/11/30 02:02:38;;;;;;;3.25;2.25;;;3.30;99.90;;;;;;5055213;28;20212;-66
2021/11/30 02:05:04;;;;;;;3.13;2.88;;;3.30;99.90;;;;;;5037021;28;20169;-66
2021/11/30 02:07:29;;;;;;;2.47;1.93;;;3.30;99.90;;;;;;5054572;28;20674;-68
2021/11/30 02:09:55;;;;;;;4.40;2.83;;;3.30;99.90;;;;;;5054755;28;20407;-65
2021/11/30 02:12:23;;;;;;;2.17;1.90;;;3.40;99.90;;;;;;5055104;28;20188;-67
2021/11/30 02:14:52;;;;;;;3.47;3.17;;;3.40;99.90;;;;;;5054766;28;20190;-66
2021/11/30 02:17:18;;;;;;;3.05;2.60;;;3.30;99.90;;;;;;5054424;28;20177;-67
2021/11/30 02:19:57;;;;;;;2.47;2.17;;;3.30;99.90;;;;;;5060214;28;20180;-66
2021/11/30 02:22:23;;;;;;;2.33;2.13;;;3.40;99.90;;;;;;5074659;28;20399;-66
2021/11/30 02:24:49;;;;;;;1.85;1.75;;;3.40;99.90;;;;;;5074321;28;20207;-66
2021/11/30 02:27:15;;;;;;;4.35;2.03;;;3.40;99.90;;;;;;5073195;28;20168;-66
2021/11/30 02:29:41;;;;;;;1.33;1.27;;;3.40;99.90;;;;;;5074634;28;20255;-67
2021/11/30 02:32:08;;;;;;;2.97;2.60;;;3.40;99.90;;;;;;5074264;28;20690;-67
2021/11/30 02:34:34;;;;;;;2.22;2.08;;;3.40;99.90;;;;;;5056433;28;20203;-66
2021/11/30 02:37:16;;;;;;;1.65;1.55;;;3.40;99.90;;;;;;5073960;28;20169;-66
2021/11/30 02:39:43;;;;;;;2.13;2.00;;;3.40;99.90;;;;;;5074453;28;20169;-65
2021/11/30 02:42:10;;;;;;;2.38;2.17;;;3.40;99.90;;;;;;5074235;28;20182;-66
2021/11/30 02:44:37;;;;;;;2.47;1.90;;;3.40;99.90;;;;;;5074115;28;20403;-67
2021/11/30 02:47:09;;;;;;;6.82;1.92;;;3.40;99.90;;;;;;5073907;28;20207;-67
2021/11/30 02:49:37;;;;;;;2.20;2.00;;;3.30;99.90;;;;;;5074186;28;20365;-66
2021/11/30 02:52:08;;;;;;;2.20;2.00;;;3.30;99.90;;;;;;5074085;28;20173;-66
2021/11/30 02:54:37;;;;;;;2.60;1.95;;;3.40;99.90;;;;;;5074027;28;20712;-67
2021/11/30 02:57:05;;;;;;;5.95;1.42;;;3.40;99.90;;;;;;5073572;28;20207;-66
2021/11/30 02:59:37;;;;;;;5.70;2.67;;;3.40;99.90;;;;;;5073935;28;20175;-66
2021/11/30 03:02:25;;;;;;;1.13;1.13;;;3.40;99.90;;;;;;5055930;28;20176;-67
2021/11/30 03:04:53;;;;;;;1.10;1.10;;;3.30;99.90;;;;;;5073345;28;20208;-67
2021/11/30 03:07:25;;;;;;;4.40;1.30;;;3.30;99.90;;;;;;5073650;28;20544;-66
2021/11/30 03:09:52;;;;;;;1.63;1.63;;;3.30;99.90;;;;;;5073790;28;20192;-67
2021/11/30 03:12:18;;;;;;;1.75;1.65;;;3.30;99.90;;;;;;5073681;28;20173;-67
2021/11/30 03:14:44;;;;;;;1.67;1.03;;;3.30;99.90;;;;;;5073691;28;20200;-67
2021/11/30 03:17:10;;;;;;;1.67;1.57;;;3.20;99.90;;;;;;5073487;28;20165;-67
2021/11/30 03:19:36;;;;;;;1.25;1.15;;;3.20;99.90;;;;;;5069599;28;20408;-66
2021/11/30 03:22:02;;;;;;;0.80;0.80;;;3.10;99.90;;;;;;5053624;28;20185;-66
2021/11/30 03:24:28;;;;;;;1.50;1.40;;;3.10;99.90;;;;;;5053407;28;20259;-66
2021/11/30 03:26:54;;;;;;;0.67;0.67;;;3.10;99.90;;;;;;5053149;28;20173;-67
2021/11/30 03:29:20;;;;;;;2.10;2.00;;;3.00;99.90;;;;;;5053428;28;20414;-67
2021/11/30 03:31:48;;;;;;;1.70;1.63;;;3.00;99.90;;;;;;5053623;28;20406;-67
2021/11/30 03:34:21;;;;;;;2.40;1.23;;;3.00;99.90;;;;;;5053156;28;20197;-66
2021/11/30 03:36:49;;;;;;;2.50;1.63;;;2.90;99.90;;;;;;5053042;28;20177;-65
2021/11/30 03:39:18;;;;;;;2.65;0.90;;;2.90;99.90;;;;;;5053001;28;20170;-65
2021/11/30 03:41:46;;;;;;;1.20;1.10;;;2.90;99.90;;;;;;5053439;28;20252;-66
2021/11/30 03:44:12;;;;;;;0.77;0.77;;;2.80;99.90;;;;;;5053197;28;20209;-66
2021/11/30 03:46:38;;;;;;;0.88;0.88;;;2.90;99.90;;;;;;5052798;28;20170;-66
2021/11/30 03:49:07;;;;;;;2.25;1.25;;;2.90;99.90;;;;;;5053222;28;20276;-66
2021/11/30 03:51:33;;;;;;;0.90;0.90;;;2.90;99.90;;;;;;5053265;28;20184;-66
2021/11/30 03:53:59;;;;;;;2.88;1.00;;;2.90;99.90;;;;;;5035102;28;20671;-65
2021/11/30 03:56:26;;;;;;;1.10;1.00;;;3.00;99.90;;;;;;5052821;28;20185;-67
2021/11/30 03:58:52;;;;;;;1.42;1.42;;;3.00;99.90;;;;;;5053233;28;20262;-67
2021/11/30 04:01:18;;;;;;;1.05;1.05;;;;;;;;;;5053448;28;20635;-67
2021/11/30 04:03:44;;;;;;;0.80;0.80;;;3.20;99.90;;;;;;5052949;28;20208;-66
2021/11/30 04:06:10;;;;;;;0.90;0.90;;;3.10;99.90;;;;;;5052927;28;20669;-66
2021/11/30 04:08:38;;;;;;;0.83;0.83;;;3.20;99.90;;;;;;5052893;28;20211;-65
2021/11/30 04:11:08;;;;;;;1.63;1.08;;;3.10;99.90;;;;;;5053176;28;20174;-67
2021/11/30 04:13:34;;;;;;;0.82;0.82;;;3.30;99.90;;;;;;5053036;28;20220;-68
2021/11/30 04:16:00;;;;;;;1.15;1.15;;;3.30;99.90;;;;;;5053107;28;20176;-66
2021/11/30 04:18:26;;;;;;;1.00;0.98;;;3.50;99.90;;;;;;5052647;28;20579;-66
2021/11/30 04:20:52;;;;;;;2.55;1.50;;;3.30;99.90;;;;;;5049537;28;20643;-67
2021/11/30 04:23:18;;;;;;;0.98;0.98;;;3.40;99.90;;;;;;5072651;28;20622;-66
2021/11/30 04:25:44;;;;;;;0.87;0.87;;;;;;;;;;5054924;28;20173;-67
2021/11/30 04:28:10;;;;;;;1.07;1.00;;;3.30;99.90;;;;;;5072495;28;20203;-66
2021/11/30 04:30:35;;;;;;;1.00;1.00;;;3.50;99.90;;;;;;5072897;28;20793;-66
2021/11/30 04:33:01;;;;;;;0.80;0.80;;;3.30;99.90;;;;;;5072890;28;20200;-66
2021/11/30 04:35:27;;;;;;;0.70;0.70;;;3.40;99.90;;;;;;5072914;28;20177;-65
2021/11/30 04:37:53;;;;;;;1.67;1.57;;;3.30;99.90;;;;;;5072373;28;20666;-66
2021/11/30 04:40:19;;;;;;;0.80;0.80;;;3.30;99.90;;;;;;5072525;28;20191;-66
2021/11/30 04:42:47;;;;;;;0.63;0.63;;;3.10;99.90;;;;;;5072484;28;20176;-65
2021/11/30 04:45:46;;;;;;;1.05;0.93;;;2.60;99.90;;;;;;5072626;28;20173;-66
2021/11/30 04:48:14;;;;;;;2.85;1.77;;;3.10;99.90;;;;;;5072383;28;20176;-67
2021/11/30 04:50:42;;;;;;;1.15;0.68;;;3.00;99.90;;;;;;5074362;28;20655;-66
2021/11/30 04:53:08;;;;;;;0.60;0.60;;;;;;;;;;5076486;28;20196;-66
2021/11/30 04:55:34;;;;;;;3.30;1.95;;;3.10;99.90;;;;;;5076457;28;20252;-67
2021/11/30 04:58:03;;;;;;;1.67;1.57;;;2.90;99.90;;;;;;5058092;28;20677;-66
2021/11/30 05:00:30;;;;;;;1.02;1.02;;;2.70;99.90;;;;;;5076344;28;20183;-66
2021/11/30 05:02:56;;;;;;;1.85;1.70;;;3.10;99.90;;;;;;5075835;28;20238;-66
2021/11/30 05:05:22;;;;;;;0.60;0.60;;;2.90;99.90;;;;;;5076236;28;20204;-67
2021/11/30 05:07:48;;;;;;;0.60;0.60;;;2.90;99.90;;;;;;5075820;28;20198;-66
2021/11/30 05:10:14;;;;;;;1.10;1.10;;;2.70;99.90;;;;;;5076136;28;20168;-66
2021/11/30 05:12:41;;;;;;;1.38;1.33;;;3.00;99.90;;;;;;5076202;28;20176;-66
2021/11/30 05:15:08;;;;;;;4.85;1.10;;;2.80;99.90;;;;;;5075812;28;20182;-66
2021/11/30 05:17:34;;;;;;;2.00;1.23;;;3.00;99.90;;;;;;5075488;28;20189;-67
2021/11/30 05:20:00;;;;;;;1.30;1.20;;;3.00;99.90;;;;;;5068274;28;20341;-66
2021/11/30 05:22:26;;;;;;;1.45;1.35;;;2.90;99.90;;;;;;5055588;28;20507;-66
2021/11/30 05:24:52;;;;;;;1.07;1.00;;;3.00;99.90;;;;;;5055732;28;20344;-66
2021/11/30 05:27:19;;;;;;;1.53;1.43;;;3.60;99.90;;;;;;5055319;28;20769;-66
2021/11/30 05:29:45;;;;;;;0.82;0.82;;;;;;;;;;5055499;28;20436;-66
2021/11/30 05:32:11;;;;;;;3.00;1.35;;;;;;;;;;5055448;28;20248;-65
2021/11/30 05:34:37;;;;;;;1.48;1.48;;;;;;;;;;5055374;28;20199;-66
2021/11/30 05:37:03;;;;;;;0.95;0.70;;;3.10;99.90;;;;;;5055191;28;20169;-65
2021/11/30 05:39:29;;;;;;;1.33;0.90;;;3.10;99.90;;;;;;5055503;28;20273;-66
2021/11/30 05:41:55;;;;;;;1.33;1.23;;;3.10;99.90;;;;;;5055440;28;20403;-66
2021/11/30 05:44:20;;;;;;;1.27;1.17;;;3.10;99.90;;;;;;5055264;28;20532;-65
2021/11/30 05:46:48;;;;;;;1.00;1.00;;;2.90;99.90;;;;;;5055157;28;20975;-66
2021/11/30 05:49:14;;;;;;;1.25;1.25;;;2.60;99.90;;;;;;5055524;28;20176;-66
2021/11/30 05:51:40;;;;;;;0.65;0.65;;;2.90;99.90;;;;;;5055344;28;20215;-66
2021/11/30 05:54:06;;;;;;;1.50;1.40;;;2.80;99.90;;;;;;5055328;28;20193;-66
2021/11/30 05:56:32;;;;;;;0.70;0.70;;;2.90;99.90;;;;;;5055053;28;20177;-66
2021/11/30 05:58:58;;;;;;;1.23;1.07;;;2.80;99.90;;;;;;5055254;28;20260;-66
2021/11/30 06:01:30;;;;;;;2.55;2.35;;;2.50;99.90;;;;;;5054995;28;20188;-66
2021/11/30 06:03:59;;;;;;;1.20;1.20;;;3.00;99.90;;;;;;5036988;28;20617;-65
2021/11/30 06:06:35;;;;;;;0.82;0.82;;;3.00;99.90;;;;;;5054824;28;20173;-67
2021/11/30 06:09:08;;;;;;;1.77;1.38;;;1.90;99.90;;;;;;5055066;28;20513;-67
2021/11/30 06:11:34;;;;;;;0.93;0.75;;;3.60;99.90;;;;;;5054860;28;20654;-66
2021/11/30 06:14:00;;;;;;;1.40;1.40;;;2.70;99.90;;;;;;5054745;28;20209;-66
2021/11/30 06:16:26;;;;;;;1.40;1.30;;;;;;;;;;5054733;28;20181;-68
2021/11/30 06:18:52;;;;;;;1.73;1.35;;;2.60;99.90;;;;;;5055218;28;20173;-67
2021/11/30 06:21:18;;;;;;;1.88;1.25;;;2.80;99.90;;;;;;5073437;28;20513;-67
2021/11/30 06:23:47;;;;;;;1.63;1.58;;;2.80;99.90;;;;;;5074736;28;20262;-68
2021/11/30 06:26:13;;;;;;;2.25;1.40;;;2.90;99.90;;;;;;5056944;28;20169;-68
2021/11/30 06:28:39;;;;;;;1.67;1.58;;;2.80;99.90;;;;;;5071547;28;20528;-68
2021/11/30 06:31:07;;;;;;;4.10;1.33;;;2.90;99.90;;;;;;5090894;28;20178;-67
2021/11/30 06:33:33;;;;;;;1.55;1.45;;;2.80;99.90;;;;;;5104069;28;20426;-68
2021/11/30 06:36:00;;;;;;;1.00;0.82;;;2.70;99.90;;;;;;5106763;28;20276;-67
2021/11/30 06:38:26;;;;;;;2.05;1.67;;;2.70;99.90;;;;;;5106407;28;20576;-67
2021/11/30 06:40:51;;;;;;;1.20;1.10;;;2.60;99.90;;;;;;5096330;28;20172;-66
2021/11/30 06:43:18;;;;;;;2.00;1.77;;;2.50;99.90;;;;;;5064126;28;20989;-68
2021/11/30 06:45:44;;;;;;;1.50;1.40;;;2.60;99.90;;;;;;5070442;28;20423;-65
2021/11/30 06:48:10;;;;;;;1.10;1.10;;;2.50;99.90;;;;;;5073734;28;20176;-67
2021/11/30 06:50:36;;;;;;;1.20;1.20;;;2.50;99.90;;;;;;5056020;28;20415;-66
2021/11/30 06:53:02;;;;;;;1.70;1.70;;;2.50;99.90;;;;;;5071241;28;20207;-66
2021/11/30 06:55:28;;;;;;;1.45;1.38;;;2.50;99.90;;;;;;5072600;28;20423;-69
2021/11/30 06:57:54;;;;;;;1.07;1.07;;;2.30;99.90;;;;;;5072624;28;20173;-70
2021/11/30 07:00:22;;;;;;;1.40;1.30;;;2.30;99.90;;;;;;5070986;28;20190;-67
2021/11/30 07:02:50;;;;;;;1.00;1.00;;;2.40;99.90;;;;;;5065092;28;20924;-69
2021/11/30 07:05:22;;;;;;;1.73;1.63;;;2.20;99.90;;;;;;5050662;28;20238;-66
2021/11/30 07:15:39;;;;;;;1.70;1.60;;;2.60;99.90;;;;;;5062427;28;20180;-67
2021/11/30 07:18:05;;;;;;;1.45;1.40;;;2.40;99.90;;;;;;5066142;28;20178;-66
2021/11/30 07:20:31;;;;;;;1.60;1.50;;;2.20;99.90;;;;;;5063265;28;20169;-66
2021/11/30 07:22:57;;;;;;;2.78;1.65;;;2.60;99.90;;;;;;5066482;28;21818;-67
2021/11/30 07:25:25;;;;;;;3.30;3.00;;;2.40;99.90;;;;;;5068812;28;20565;-68
2021/11/30 07:27:52;;;;;;;1.95;1.73;;;2.20;99.90;;;;;;5063604;28;20211;-68
2021/11/30 07:30:18;;;;;;;1.20;0.93;;;2.40;99.90;;;;;;5065337;28;20181;-67
2021/11/30 07:32:44;;;;;;;0.93;0.93;;;2.40;99.90;;;;;;5035525;28;20243;-67
2021/11/30 07:35:10;;;;;;;12.30;9.30;;;2.40;99.90;;;;;;5069629;28;20650;-66
2021/11/30 07:37:35;;;;;;;3.67;3.33;;;2.50;99.90;;;;;;5063739;28;20634;-67
2021/11/30 07:40:02;;;;;;;1.70;1.60;;;2.60;99.90;;;;;;5052463;28;20948;-70
2021/11/30 07:42:31;;;;;;;1.27;1.27;;;2.50;99.90;;;;;;5056745;28;20172;-68
2021/11/30 07:44:57;;;;;;;1.42;1.33;;;2.60;99.90;;;;;;5090054;28;20199;-69
2021/11/30 07:47:22;;;;;;;3.03;1.50;;;2.60;99.90;;;;;;5092869;28;20626;-70
2021/11/30 07:49:48;;;;;;;1.40;1.30;;;2.60;99.90;;;;;;5070952;28;20177;-71
2021/11/30 07:52:14;;;;;;;1.37;1.20;;;2.70;99.90;;;;;;5071799;28;20808;-67
2021/11/30 07:54:39;;;;;;;10.33;1.30;;;2.70;99.90;;;;;;5068818;28;20302;-69
2021/11/30 07:57:05;;;;;;;2.67;1.90;;;;;;;;;;5064550;28;20234;-68
2021/11/30 07:59:32;;;;;;;0.90;0.90;;;2.50;99.90;;;;;;5061100;28;20192;-68
2021/11/30 08:01:58;;;;;;;1.05;0.95;;;2.70;99.90;;;;;;5069342;28;20536;-69
2021/11/30 08:04:24;;;;;;;1.15;1.15;;;2.80;99.90;;;;;;5045742;28;20237;-66
2021/11/30 08:06:50;;;;;;;1.02;0.93;;;2.90;99.90;;;;;;5058437;28;20181;-68
2021/11/30 08:09:16;;;;;;;1.00;1.00;;;3.10;99.90;;;;;;5058021;28;20196;-69
2021/11/30 08:11:42;;;;;;;1.00;1.00;;;2.90;99.90;;;;;;5054605;28;20184;-69
2021/11/30 08:14:07;;;;;;;1.03;0.90;;;3.00;99.90;;;;;;5060333;28;20196;-69
2021/11/30 08:16:33;;;;;;;1.63;1.20;;;2.90;99.90;;;;;;5059900;28;20185;-68
2021/11/30 08:18:59;;;;;;;1.00;1.00;;;2.90;99.90;;;;;;5061569;28;20271;-67
2021/11/30 08:21:25;;;;;;;1.35;1.20;;;3.00;99.90;;;;;;5062440;28;20251;-69
2021/11/30 08:23:51;;;;;;;0.97;0.97;;;3.20;99.90;;;;;;5062992;28;20365;-71
2021/11/30 08:26:16;;;;;;;1.00;1.00;;;2.90;99.90;;;;;;5059936;28;20435;-71
2021/11/30 08:28:42;;;;;;;0.80;0.80;;;2.90;99.90;;;;;;5067445;28;20530;-65
2021/11/30 08:31:08;;;;;;;1.15;1.13;;;2.90;99.90;;;;;;5064740;28;20161;-67
2021/11/30 08:33:34;;;;;;;1.20;1.20;;;2.90;99.90;;;;;;5065999;28;20670;-68
2021/11/30 08:36:00;;;;;;;1.33;1.33;;;;;;;;;;5064675;28;20245;-66
2021/11/30 08:38:26;;;;;;;0.60;0.60;;;3.00;99.90;;;;;;5064280;28;20766;-67
2021/11/30 08:40:52;;;;;;;0.77;0.77;;;2.90;99.90;;;;;;5067911;28;20165;-68
2021/11/30 08:43:18;;;;;;;1.23;1.13;;;2.90;99.90;;;;;;5066757;28;20204;-69
2021/11/30 08:45:43;;;;;;;3.30;2.50;;;2.90;99.90;;;;;;5063454;28;20538;-68
2021/11/30 08:48:09;;;;;;;1.13;0.90;;;3.00;99.90;;;;;;5062355;28;20185;-69
2021/11/30 08:50:35;;;;;;;2.37;1.63;;;3.00;99.90;;;;;;5067003;28;20691;-69
2021/11/30 08:53:01;;;;;;;2.07;1.87;;;3.10;99.90;;;;;;5068825;28;20450;-70
2021/11/30 08:55:27;;;;;;;1.90;1.20;;;3.00;99.90;;;;;;5062852;28;20782;-68
2021/11/30 08:57:53;;;;;;;1.60;1.50;;;3.00;99.90;;;;;;5067221;28;20173;-69
2021/11/30 09:00:22;;;;;;;1.85;1.15;;;3.00;99.90;;;;;;5068635;28;20502;-68
2021/11/30 09:02:48;;;;;;;0.88;0.88;;;2.90;99.90;;;;;;5062511;28;21125;-72
2021/11/30 09:05:15;;;;;;;1.20;1.20;;;2.90;99.90;;;;;;5064307;28;20193;-69
2021/11/30 09:07:41;;;;;;;1.08;1.08;;;2.90;99.90;;;;;;5085560;28;20173;-68
2021/11/30 09:10:08;;;;;;;1.10;1.10;;;3.00;99.90;;;;;;5071459;28;20204;-68
2021/11/30 09:12:34;;;;;;;2.70;1.92;;;2.90;99.90;;;;;;5072204;28;20172;-65
2021/11/30 09:15:00;;;;;;;1.55;1.30;;;2.90;99.90;;;;;;5075266;28;20169;-65
2021/11/30 09:17:26;;;;;;;1.92;1.30;;;2.90;99.90;;;;;;5076526;28;20230;-66
2021/11/30 09:19:52;;;;;;;3.20;1.47;;;2.80;99.90;;;;;;5075635;28;20180;-63
2021/11/30 09:22:20;;;;;;;1.20;1.20;;;2.80;99.90;;;;;;5075783;28;20414;-64
2021/11/30 09:24:46;;;;;;;1.45;1.42;;;2.80;99.90;;;;;;5062925;28;20257;-64
2021/11/30 09:27:11;;;;;;;1.20;1.20;;;2.80;99.90;;;;;;5055576;28;20165;-66
2021/11/30 09:29:37;;;;;;;1.87;1.77;;;2.80;99.90;;;;;;5060803;28;20242;-66
2021/11/30 09:32:03;;;;;;;1.07;1.07;;;2.90;99.90;;;;;;5059950;28;20179;-66
2021/11/30 09:34:29;;;;;;;1.00;1.00;;;2.80;99.90;;;;;;5068041;28;20565;-66
2021/11/30 09:36:55;;;;;;;1.87;1.77;;;2.90;99.90;;;;;;5088404;28;20180;-66
2021/11/30 09:39:22;;;;;;;1.95;1.85;;;2.90;99.90;;;;;;5088752;28;20184;-68
2021/11/30 09:41:48;;;;;;;1.55;1.10;;;2.90;99.90;;;;;;5083318;28;20273;-66
2021/11/30 09:44:16;;;;;;;10.55;1.35;;;2.90;99.90;;;;;;5068602;28;20444;-64
2021/11/30 09:46:42;;;;;;;2.22;1.30;;;3.00;99.90;;;;;;5085265;28;20223;-65
2021/11/30 09:49:08;;;;;;;1.15;1.15;;;3.00;99.90;;;;;;5078069;28;20380;-64
2021/11/30 09:51:34;;;;;;;1.00;0.90;;;3.00;99.90;;;;;;5090175;28;20168;-66
2021/11/30 09:54:00;;;;;;;1.10;1.10;;;3.10;99.90;;;;;;5109118;28;20420;-65
2021/11/30 09:56:26;;;;;;;1.55;1.17;;;3.10;99.90;;;;;;5089927;28;20404;-63
2021/11/30 09:58:52;;;;;;;1.40;1.40;;;3.20;99.90;;;;;;5088666;28;20377;-63
2021/11/30 10:01:18;;;;;;;0.90;0.90;;;3.20;99.90;;;;;;5088579;28;20176;-67
2021/11/30 10:03:44;;;;;;;4.97;1.25;;;3.20;99.90;;;;;;5088174;28;20466;-64
2021/11/30 10:06:11;;;;;;;1.50;0.87;;;3.30;99.90;;;;;;5071250;28;20195;-66
2021/11/30 10:08:43;;;;;;;1.00;1.00;;;3.30;99.90;;;;;;5088636;28;20528;-68
2021/11/30 10:11:26;;;;;;;1.00;0.93;;;3.30;99.90;;;;;;5087887;28;20268;-65
2021/11/30 10:14:11;;;;;;;0.68;0.60;;;3.30;99.90;;;;;;5088599;28;20188;-64
2021/11/30 10:16:37;;;;;;;1.58;1.05;;;3.20;99.90;;;;;;5088345;28;20157;-67
2021/11/30 10:19:03;;;;;;;1.05;0.95;;;3.30;99.90;;;;;;5088412;28;20388;-67
2021/11/30 10:21:29;;;;;;;1.87;1.77;;;3.20;99.90;;;;;;5088264;28;20165;-67
2021/11/30 10:24:05;;;;;;;1.50;1.00;;;3.20;99.90;;;;;;5087903;28;20208;-69
2021/11/30 10:26:41;;;;;;;1.15;0.73;;;3.20;99.90;;;;;;5087976;28;20198;-69
2021/11/30 10:29:13;;;;;;;0.95;0.85;;;3.20;99.90;;;;;;5077802;28;20288;-68
2021/11/30 10:31:42;;;;;;;0.80;0.80;;;3.10;99.90;;;;;;5087414;28;20161;-69
2021/11/30 10:34:25;;;;;;;0.60;0.60;;;3.10;99.90;;;;;;5087829;28;20185;-69
2021/11/30 10:37:03;;;;;;;0.77;0.77;;;3.10;99.90;;;;;;5087840;28;20180;-70
2021/11/30 10:39:33;;;;;;;0.50;0.50;;;3.10;99.90;;;;;;5087126;28;20161;-68
2021/11/30 10:42:20;;;;;;;1.25;1.25;;;3.20;99.90;;;;;;5087692;28;20180;-67
2021/11/30 10:44:48;;;;;;;1.05;0.95;;;3.20;99.90;;;;;;5087737;28;20343;-68
2021/11/30 10:47:26;;;;;;;2.78;1.90;;;3.20;99.90;;;;;;5086413;28;20164;-67
2021/11/30 10:50:05;;;;;;;1.35;0.98;;;3.10;99.90;;;;;;5087457;28;20315;-68
2021/11/30 10:52:33;;;;;;;1.13;0.80;;;3.10;99.90;;;;;;5087797;28;20169;-70
2021/11/30 10:55:10;;;;;;;1.27;1.20;;;3.10;99.90;;;;;;5087663;28;20169;-72
2021/11/30 10:57:37;;;;;;;0.80;0.80;;;3.20;99.90;;;;;;5087457;28;20231;-70
2021/11/30 11:00:32;;;;;;;1.85;1.25;;;3.20;99.90;;;;;;5074751;28;20165;-73
2021/11/30 11:03:13;;;;;;;1.20;1.20;;;3.10;99.90;;;;;;5067473;28;20227;-74
2021/11/30 11:06:25;;;;;;;1.00;0.90;;;3.10;99.90;;;;;;5061255;28;20658;-75
2021/11/30 11:08:48;;;;;;;0.60;0.60;;;3.10;99.90;;;;;;5087152;28;20282;-67
2021/11/30 11:11:19;;;;;;;0.82;0.80;;;3.10;99.90;;;;;;5087627;28;20230;-67
2021/11/30 11:13:45;;;;;;;0.65;0.65;;;3.20;99.90;;;;;;5087142;28;20200;-68
2021/11/30 11:16:18;;;;;;;0.68;0.68;;;3.20;99.90;;;;;;5087359;28;20187;-67
2021/11/30 11:18:44;;;;;;;2.45;2.25;;;3.20;99.90;;;;;;5069207;28;20202;-68
2021/11/30 11:21:19;;;;;;;1.42;1.33;;;3.30;99.90;;;;;;5083241;28;20263;-75
2021/11/30 11:23:57;;;;;;;0.38;0.38;;;3.20;99.90;;;;;;5087133;28;20248;-68
2021/11/30 11:26:32;;;;;;;1.73;1.63;;;3.20;99.90;;;;;;5086915;28;20191;-69
2021/11/30 11:29:00;;;;;;;0.80;0.80;;;3.20;99.90;;;;;;5096237;28;20182;-68
2021/11/30 11:31:28;;;;;;;1.10;1.00;;;3.20;99.90;;;;;;5101567;28;20377;-69
2021/11/30 11:33:55;;;;;;;0.50;0.50;;;3.20;99.90;;;;;;5087114;28;20216;-68
2021/11/30 11:36:21;;;;;;;1.48;0.70;;;3.20;99.90;;;;;;5086841;28;20273;-70
2021/11/30 11:38:47;;;;;;;0.97;0.60;;;3.30;99.90;;;;;;5076504;28;20212;-70
2021/11/30 11:41:13;;;;;;;0.70;0.70;;;3.40;99.90;;;;;;5067029;28;20411;-69
2021/11/30 11:43:40;;;;;;;0.52;0.52;;;3.40;99.90;;;;;;5066814;28;20337;-68
2021/11/30 11:46:10;;;;;;;0.85;0.85;;;3.40;99.90;;;;;;5074830;28;20165;-69
2021/11/30 11:48:37;;;;;;;1.95;0.73;;;3.40;99.90;;;;;;5086741;28;20222;-66
2021/11/30 11:51:04;;;;;;;0.90;0.90;;;3.40;99.90;;;;;;5084720;28;20169;-66
2021/11/30 11:53:37;;;;;;;0.95;0.95;;;3.50;99.90;;;;;;5066495;28;20492;-65
2021/11/30 11:56:17;;;;;;;0.85;0.65;;;3.40;99.90;;;;;;5066437;28;20169;-65
2021/11/30 11:58:46;;;;;;;0.80;0.80;;;4.00;99.90;;;;;;5054317;28;20218;-66
2021/11/30 12:01:21;;;;;;;0.52;0.52;;;3.60;99.90;;;;;;5094826;28;20228;-62
2021/11/30 12:03:58;;;;;;;0.40;0.40;;;3.70;99.90;;;;;;5066289;28;20266;-62
2021/11/30 12:06:26;;;;;;;0.88;0.88;;;3.60;99.90;;;;;;5066428;28;20413;-63
2021/11/30 12:09:17;;;;;;;0.50;0.50;;;3.70;99.90;;;;;;5066737;28;20289;-64
2021/11/30 12:11:55;;;;;;;0.70;0.70;;;3.60;99.90;;;;;;5066293;28;20176;-62
2021/11/30 12:14:40;;;;;;;0.55;0.55;;;4.40;99.90;;;;;;5066488;28;20270;-63
2021/11/30 12:17:10;;;;;;;1.17;1.17;;;3.70;99.90;;;;;;5066349;28;20162;-63
2021/11/30 12:19:56;;;;;;;0.75;0.75;;;3.80;99.90;;;;;;5075142;28;20172;-62
2021/11/30 12:22:49;;;;;;;0.90;0.90;;;3.80;99.90;;;;;;5056206;28;20199;-63
2021/11/30 12:25:34;;;;;;;1.40;0.88;;;3.80;99.90;;;;;;5048823;28;20493;-63
2021/11/30 12:28:05;;;;;;;1.02;1.00;;;3.80;99.90;;;;;;5068351;28;20270;-63
2021/11/30 12:30:45;;;;;;;0.50;0.50;;;3.50;99.90;;;;;;5106829;28;20172;-62
2021/11/30 12:33:15;;;;;;;0.40;0.40;;;3.80;99.90;;;;;;5099577;28;20204;-64
2021/11/30 12:35:57;;;;;;;1.33;1.25;;;3.80;99.90;;;;;;5086666;28;20282;-62
2021/11/30 12:38:29;;;;;;;4.78;0.85;;;3.90;99.90;;;;;;5086123;28;20164;-62
2021/11/30 12:40:56;;;;;;;0.60;0.60;;;3.80;99.90;;;;;;5086502;28;20173;-63
2021/11/30 12:43:25;;;;;;;0.90;0.90;;;3.80;99.90;;;;;;5086190;28;20204;-63
2021/11/30 12:46:02;;;;;;;0.80;0.80;;;3.80;99.90;;;;;;5085822;28;20188;-64
2021/11/30 12:48:41;;;;;;;0.50;0.50;;;3.90;99.90;;;;;;5070228;28;20183;-65
2021/11/30 12:51:34;;;;;;;0.95;0.95;;;3.90;99.90;;;;;;5056308;28;20308;-63
2021/11/30 12:54:02;;;;;;;0.70;0.70;;;3.80;99.90;;;;;;5080498;28;20243;-65
2021/11/30 12:57:01;;;;;;;0.50;0.50;;;;;;;;;;5086084;28;20161;-64
2021/11/30 12:59:41;;;;;;;1.10;0.95;;;3.90;99.90;;;;;;5042361;28;20309;-64
2021/11/30 13:02:41;;;;;;;0.93;0.93;;;4.00;99.90;;;;;;5086069;28;20165;-63
2021/11/30 13:05:10;;;;;;;1.05;0.73;;;4.00;99.90;;;;;;5090028;28;20211;-62
2021/11/30 13:07:51;;;;;;;0.50;0.50;;;4.00;99.90;;;;;;5085066;28;20169;-64
2021/11/30 13:10:21;;;;;;;0.82;0.82;;;4.00;99.90;;;;;;5092507;28;20163;-63
2021/11/30 13:12:47;;;;;;;1.00;1.00;;;4.00;99.90;;;;;;5108979;28;20303;-62
2021/11/30 13:15:14;;;;;;;0.70;0.70;;;4.00;99.90;;;;;;5085546;28;20276;-65
2021/11/30 13:17:42;;;;;;;0.73;0.60;;;4.00;99.90;;;;;;5089517;28;20168;-71
2021/11/30 13:20:10;;;;;;;1.00;0.70;;;4.10;99.90;;;;;;5080817;28;20341;-72
2021/11/30 13:22:44;;;;;;;0.60;0.55;;;4.10;99.90;;;;;;5070278;28;20173;-63
2021/11/30 13:25:14;;;;;;;0.90;0.90;;;4.10;99.90;;;;;;5094043;28;20270;-62
2021/11/30 13:27:41;;;;;;;2.05;0.93;;;4.10;99.90;;;;;;5109819;28;20175;-62